createdAt,value
2018-07-26T00:00:01.518Z,101570.38
2018-07-26T00:02:29.910Z,101570.45
2018-07-26T00:04:58.494Z,101551.80
2018-07-26T00:07:26.939Z,101574.11
2018-07-26T00:09:55.326Z,101576.77
2018-07-26T00:12:23.726Z,101574.65
2018-07-26T00:14:52.103Z,101581.25
2018-07-26T00:17:20.498Z,101584.30
2018-07-26T00:19:48.902Z,101586.54
2018-07-26T00:22:17.294Z,101584.83
2018-07-26T00:24:45.670Z,101586.62
2018-07-26T00:27:14.065Z,101579.57
2018-07-26T00:29:42.449Z,101570.84
2018-07-26T00:32:10.847Z,101566.95
2018-07-26T00:34:39.254Z,101567.50
2018-07-26T00:37:07.654Z,101561.91
2018-07-26T00:39:36.027Z,101562.89
2018-07-26T00:42:04.430Z,101561.65
2018-07-26T00:44:32.806Z,101563.03
2018-07-26T00:47:01.340Z,101565.27
2018-07-26T00:49:29.703Z,101571.86
2018-07-26T00:51:58.106Z,101573.66
2018-07-26T00:54:26.475Z,101578.93
2018-07-26T00:56:54.869Z,101577.61
2018-07-26T00:59:23.255Z,101571.89
2018-07-26T01:01:51.645Z,101573.73
2018-07-26T01:04:20.019Z,101573.78
2018-07-26T01:06:48.424Z,101588.25
2018-07-26T01:09:16.798Z,101590.92
2018-07-26T01:11:45.204Z,101593.16
2018-07-26T01:14:13.574Z,101596.31
2018-07-26T01:16:41.964Z,101597.70
2018-07-26T01:19:10.338Z,101594.29
2018-07-26T01:21:38.753Z,101591.38
2018-07-26T01:24:07.119Z,101594.62
2018-07-26T01:26:35.505Z,101597.39
2018-07-26T01:29:03.897Z,101594.86
2018-07-26T01:31:32.284Z,101604.61
2018-07-26T01:34:00.654Z,101602.49
2018-07-26T01:36:29.045Z,101607.41
2018-07-26T01:38:57.413Z,101602.23
2018-07-26T01:41:25.802Z,101617.66
2018-07-26T01:44:05.489Z,101618.16
2018-07-26T01:46:33.879Z,101616.03
2018-07-26T01:49:02.251Z,101615.26
2018-07-26T01:51:30.645Z,101613.55
2018-07-26T01:53:59.016Z,101612.27
2018-07-26T01:56:27.405Z,101614.08
2018-07-26T01:58:55.785Z,101608.81
2018-07-26T02:01:24.164Z,101611.94
2018-07-26T02:03:52.557Z,101606.67
2018-07-26T02:06:20.932Z,101608.03
2018-07-26T02:08:49.317Z,101612.85
2018-07-26T02:11:17.718Z,101610.22
2018-07-26T02:13:46.114Z,101611.98
2018-07-26T02:16:14.493Z,101611.08
2018-07-26T02:18:42.912Z,101607.99
2018-07-26T02:21:11.301Z,101608.89
2018-07-26T02:23:39.705Z,101611.04
2018-07-26T02:26:08.085Z,101611.91
2018-07-26T02:28:36.477Z,101604.41
2018-07-26T02:31:04.901Z,101601.31
2018-07-26T02:33:33.266Z,101608.77
2018-07-26T02:36:01.634Z,101603.05
2018-07-26T02:38:30.022Z,101601.69
2018-07-26T02:40:58.389Z,101606.09
2018-07-26T02:43:26.785Z,101607.44
2018-07-26T02:45:55.149Z,101613.58
2018-07-26T02:48:23.554Z,101612.27
2018-07-26T02:50:51.924Z,101601.73
2018-07-26T02:53:20.319Z,101608.77
2018-07-26T02:55:48.697Z,101610.54
2018-07-26T02:58:17.102Z,101617.54
2018-07-26T03:00:45.469Z,101622.39
2018-07-26T03:03:13.862Z,101620.63
2018-07-26T03:05:42.231Z,101628.08
2018-07-26T03:08:10.618Z,101625.89
2018-07-26T03:10:39.097Z,101628.98
2018-07-26T03:13:07.486Z,101629.47
2018-07-26T03:15:35.851Z,101633.84
2018-07-26T03:18:04.237Z,101631.25
2018-07-26T03:20:32.628Z,101629.48
2018-07-26T03:23:01.014Z,101632.11
2018-07-26T03:25:29.381Z,101631.70
2018-07-26T03:27:57.773Z,101627.33
2018-07-26T03:30:26.158Z,101627.80
2018-07-26T03:32:54.553Z,101627.38
2018-07-26T03:35:22.922Z,101632.27
2018-07-26T03:37:52.989Z,101629.22
2018-07-26T03:40:21.362Z,101626.59
2018-07-26T03:42:49.781Z,101636.22
2018-07-26T03:45:18.155Z,101629.60
2018-07-26T03:47:46.582Z,101633.09
2018-07-26T03:50:14.949Z,101633.92
2018-07-26T03:52:43.380Z,101628.61
2018-07-26T03:55:11.749Z,101632.94
2018-07-26T03:57:40.150Z,101633.30
2018-07-26T04:00:08.524Z,101630.66
2018-07-26T04:02:36.895Z,101631.94
2018-07-26T04:05:05.294Z,101633.62
2018-07-26T04:07:33.665Z,101635.30
2018-07-26T04:10:02.065Z,101636.98
2018-07-26T04:12:30.437Z,101639.04
2018-07-26T04:14:58.837Z,101641.99
2018-07-26T04:17:27.225Z,101646.70
2018-07-26T04:19:55.677Z,101642.57
2018-07-26T04:22:24.089Z,101646.06
2018-07-26T04:24:52.490Z,101644.70
2018-07-26T04:27:20.873Z,101641.62
2018-07-26T04:29:49.277Z,101638.91
2018-07-26T04:32:17.687Z,101634.44
2018-07-26T04:34:46.083Z,101640.13
2018-07-26T04:37:14.449Z,101640.56
2018-07-26T04:39:42.971Z,101638.27
2018-07-26T04:42:11.346Z,101646.06
2018-07-26T04:44:39.741Z,101646.82
2018-07-26T04:47:08.122Z,101647.59
2018-07-26T04:49:36.538Z,101644.95
2018-07-26T04:52:04.915Z,101649.30
2018-07-26T04:54:33.323Z,101652.33
2018-07-26T04:57:01.703Z,101651.75
2018-07-26T04:59:30.106Z,101657.70
2018-07-26T05:01:58.485Z,101652.19
2018-07-26T05:04:26.881Z,101649.75
2018-07-26T05:06:55.248Z,101649.08
2018-07-26T05:09:23.654Z,101651.13
2018-07-26T05:11:52.038Z,101648.78
2018-07-26T05:14:20.441Z,101652.16
2018-07-26T05:16:48.822Z,101650.28
2018-07-26T05:21:38.792Z,101656.33
2018-07-26T05:24:09.360Z,101660.20
2018-07-26T05:26:38.453Z,101645.53
2018-07-26T05:29:06.938Z,101645.44
2018-07-26T05:31:35.389Z,101654.13
2018-07-26T05:34:03.817Z,101656.63
2018-07-26T05:36:32.194Z,101654.34
2018-07-26T05:39:00.598Z,101658.62
2018-07-26T05:41:29.213Z,101657.19
2018-07-26T05:43:57.609Z,101657.98
2018-07-26T05:46:26.014Z,101656.97
2018-07-26T05:48:54.412Z,101668.25
2018-07-26T05:51:22.790Z,101660.59
2018-07-26T05:53:51.157Z,101663.92
2018-07-26T05:56:19.554Z,101665.91
2018-07-26T05:58:48.297Z,101663.91
2018-07-26T06:01:16.738Z,101657.94
2018-07-26T06:03:45.114Z,101663.87
2018-07-26T06:06:13.510Z,101664.55
2018-07-26T06:08:41.886Z,101667.41
2018-07-26T06:11:10.309Z,101667.55
2018-07-26T06:13:38.677Z,101671.23
2018-07-26T06:16:07.089Z,101670.08
2018-07-26T06:18:35.462Z,101665.37
2018-07-26T06:21:03.885Z,101673.84
2018-07-26T06:23:32.261Z,101677.55
2018-07-26T06:26:00.658Z,101679.39
2018-07-26T06:28:29.045Z,101673.36
2018-07-26T06:30:57.498Z,101671.77
2018-07-26T06:33:25.896Z,101674.48
2018-07-26T06:35:54.295Z,101680.36
2018-07-26T06:38:22.662Z,101683.63
2018-07-26T06:40:51.074Z,101682.56
2018-07-26T06:43:19.445Z,101679.20
2018-07-26T06:45:47.842Z,101680.71
2018-07-26T06:48:16.222Z,101679.09
2018-07-26T06:50:44.617Z,101677.91
2018-07-26T06:53:12.997Z,101683.36
2018-07-26T06:55:41.396Z,101681.73
2018-07-26T06:58:09.775Z,101685.39
2018-07-26T07:00:38.171Z,101686.45
2018-07-26T07:03:06.542Z,101686.03
2018-07-26T07:05:34.934Z,101683.02
2018-07-26T07:08:03.297Z,101689.23
2018-07-26T07:10:31.690Z,101688.84
2018-07-26T07:13:00.058Z,101690.23
2018-07-26T07:15:28.449Z,101686.38
2018-07-26T07:17:56.837Z,101695.36
2018-07-26T07:20:25.257Z,101698.09
2018-07-26T07:22:53.637Z,101691.09
2018-07-26T07:25:22.029Z,101693.03
2018-07-26T07:27:50.426Z,101688.22
2018-07-26T07:30:18.810Z,101688.47
2018-07-26T07:32:47.173Z,101690.36
2018-07-26T07:35:15.578Z,101693.56
2018-07-26T07:37:43.985Z,101686.45
2018-07-26T07:40:12.366Z,101694.00
2018-07-26T07:42:40.737Z,101700.69
2018-07-26T07:45:09.729Z,101703.51
2018-07-26T07:47:38.140Z,101704.19
2018-07-26T07:50:06.845Z,101702.33
2018-07-26T07:52:35.377Z,101703.52
2018-07-26T07:55:03.905Z,101702.00
2018-07-26T07:57:32.289Z,101702.57
2018-07-26T08:00:00.658Z,101702.27
2018-07-26T08:02:29.061Z,101705.47
2018-07-26T08:04:57.429Z,101703.27
2018-07-26T08:07:25.818Z,101709.94
2018-07-26T08:09:54.186Z,101705.13
2018-07-26T08:12:22.593Z,101705.16
2018-07-26T08:14:50.959Z,101702.22
2018-07-26T08:17:19.345Z,101702.58
2018-07-26T08:19:47.734Z,101702.55
2018-07-26T08:22:16.126Z,101702.05
2018-07-26T08:24:44.497Z,101704.14
2018-07-26T08:27:12.901Z,101703.66
2018-07-26T08:29:41.270Z,101706.32
2018-07-26T08:32:09.662Z,101708.53
2018-07-26T08:34:38.029Z,101704.56
2018-07-26T08:37:06.413Z,101704.09
2018-07-26T08:39:34.773Z,101702.73
2018-07-26T08:42:03.161Z,101705.88
2018-07-26T08:44:31.530Z,101700.23
2018-07-26T08:46:59.921Z,101706.09
2018-07-26T08:49:28.285Z,101704.27
2018-07-26T08:51:56.673Z,101704.28
2018-07-26T08:54:25.037Z,101703.89
2018-07-26T08:56:53.479Z,101705.20
2018-07-26T08:59:21.881Z,101705.77
2018-07-26T09:01:50.278Z,101711.19
2018-07-26T09:04:18.645Z,101708.76
2018-07-26T09:06:47.037Z,101701.28
2018-07-26T09:09:15.405Z,101712.67
2018-07-26T09:11:43.805Z,101711.09
2018-07-26T09:14:12.181Z,101701.48
2018-07-26T09:16:40.576Z,101704.71
2018-07-26T09:19:09.310Z,101709.17
2018-07-26T09:21:37.734Z,101710.39
2018-07-26T09:24:06.230Z,101707.22
2018-07-26T09:26:34.626Z,101717.92
2018-07-26T09:29:03.153Z,101712.02
2018-07-26T09:31:31.541Z,101703.90
2018-07-26T09:33:59.913Z,101701.41
2018-07-26T09:36:28.310Z,101702.44
2018-07-26T09:38:56.685Z,101700.36
2018-07-26T09:41:25.090Z,101696.45
2018-07-26T09:43:53.461Z,101699.25
2018-07-26T09:46:21.854Z,101698.63
2018-07-26T09:48:50.238Z,101695.28
2018-07-26T09:51:18.674Z,101696.28
2018-07-26T09:53:47.173Z,101693.56
2018-07-26T09:56:15.549Z,101685.63
2018-07-26T09:58:43.945Z,101690.17
2018-07-26T10:01:17.799Z,101688.45
2018-07-26T10:03:46.194Z,101685.21
2018-07-26T10:06:14.574Z,101684.09
2018-07-26T10:08:42.973Z,101679.69
2018-07-26T10:11:11.349Z,101675.31
2018-07-26T10:13:39.805Z,101674.45
2018-07-26T10:16:08.287Z,101678.45
2018-07-26T10:18:36.683Z,101677.31
2018-07-26T10:21:05.085Z,101682.10
2018-07-26T10:23:33.473Z,101672.34
2018-07-26T10:26:01.842Z,101676.47
2018-07-26T10:28:30.284Z,101679.73
2018-07-26T10:30:58.669Z,101679.45
2018-07-26T10:33:27.070Z,101678.77
2018-07-26T10:35:55.445Z,101680.80
2018-07-26T10:38:24.147Z,101680.41
2018-07-26T10:40:52.590Z,101680.61
2018-07-26T10:43:20.986Z,101679.27
2018-07-26T10:45:49.358Z,101680.77
2018-07-26T10:48:17.766Z,101675.72
2018-07-26T10:50:46.165Z,101681.78
2018-07-26T10:53:14.563Z,101681.38
2018-07-26T10:55:42.937Z,101678.90
2018-07-26T10:58:11.329Z,101673.44
2018-07-26T11:00:39.709Z,101671.04
2018-07-26T11:03:08.109Z,101669.00
2018-07-26T11:05:36.504Z,101663.71
2018-07-26T11:08:04.949Z,101667.94
2018-07-26T11:10:33.341Z,101669.94
2018-07-26T11:13:01.742Z,101660.23
2018-07-26T11:15:31.448Z,101656.88
2018-07-26T11:18:00.462Z,101654.56
2018-07-26T11:20:28.853Z,101660.99
2018-07-26T11:22:57.423Z,101648.02
2018-07-26T11:25:25.789Z,101652.80
2018-07-26T11:27:54.694Z,101649.73
2018-07-26T11:30:23.457Z,101644.80
2018-07-26T11:32:51.850Z,101645.39
2018-07-26T11:35:20.246Z,101643.72
2018-07-26T11:37:49.053Z,101642.86
2018-07-26T11:40:17.434Z,101644.18
2018-07-26T11:42:45.825Z,101641.95
2018-07-26T11:45:14.185Z,101642.87
2018-07-26T11:47:42.558Z,101635.02
2018-07-26T11:50:11.902Z,101638.34
2018-07-26T11:52:40.247Z,101632.02
2018-07-26T11:55:08.705Z,101628.83
2018-07-26T11:57:37.080Z,101632.56
2018-07-26T12:00:06.529Z,101634.09
2018-07-26T12:02:34.895Z,101629.96
2018-07-26T12:05:03.326Z,101619.11
2018-07-26T12:07:31.695Z,101612.47
2018-07-26T12:10:00.091Z,101624.27
2018-07-26T12:12:28.449Z,101628.30
2018-07-26T12:14:56.833Z,101616.50
2018-07-26T12:17:25.199Z,101611.53
2018-07-26T12:19:53.610Z,101611.98
2018-07-26T12:22:21.978Z,101604.19
2018-07-26T12:24:51.301Z,101604.89
2018-07-26T12:27:19.684Z,101607.72
2018-07-26T12:29:48.069Z,101605.12
2018-07-26T12:32:16.437Z,101614.69
2018-07-26T12:34:44.841Z,101601.54
2018-07-26T12:37:13.201Z,101596.02
2018-07-26T12:39:41.777Z,101597.94
2018-07-26T12:42:10.146Z,101604.67
2018-07-26T12:44:38.547Z,101605.44
2018-07-26T12:47:06.919Z,101595.84
2018-07-26T12:49:35.323Z,101591.66
2018-07-26T12:52:03.694Z,101595.20
2018-07-26T12:54:32.090Z,101597.09
2018-07-26T12:57:00.459Z,101597.00
2018-07-26T12:59:28.851Z,101587.19
2018-07-26T13:01:57.217Z,101584.50
2018-07-26T13:04:25.611Z,101580.86
2018-07-26T13:06:53.972Z,101589.23
2018-07-26T13:09:22.358Z,101581.21
2018-07-26T13:11:50.721Z,101573.19
2018-07-26T13:14:19.106Z,101586.33
2018-07-26T13:16:47.473Z,101584.12
2018-07-26T13:19:15.873Z,101584.12
2018-07-26T13:21:44.265Z,101577.77
2018-07-26T13:24:12.664Z,101580.36
2018-07-26T13:26:41.026Z,101592.84
2018-07-26T13:29:09.418Z,101581.12
2018-07-26T13:31:37.790Z,101579.55
2018-07-26T13:34:06.338Z,101582.29
2018-07-26T13:36:34.706Z,101580.98
2018-07-26T13:39:03.666Z,101583.31
2018-07-26T13:41:32.034Z,101590.86
2018-07-26T13:44:00.431Z,101583.69
2018-07-26T13:46:28.798Z,101561.30
2018-07-26T13:48:57.186Z,101572.70
2018-07-26T13:51:25.586Z,101573.55
2018-07-26T13:53:53.985Z,101572.83
2018-07-26T13:56:22.382Z,101582.43
2018-07-26T13:58:50.756Z,101562.95
2018-07-26T14:01:19.141Z,101572.47
2018-07-26T14:03:47.758Z,101570.67
2018-07-26T14:06:16.145Z,101572.02
2018-07-26T14:08:44.518Z,101568.07
2018-07-26T14:11:12.902Z,101568.66
2018-07-26T14:13:41.282Z,101581.22
2018-07-26T14:16:09.763Z,101579.52
2018-07-26T14:18:38.081Z,101586.91
2018-07-26T14:21:06.522Z,101575.52
2018-07-26T14:23:37.827Z,101577.80
2018-07-26T14:26:07.711Z,101575.42
2018-07-26T14:28:36.091Z,101579.68
2018-07-26T14:31:04.486Z,101575.28
2018-07-26T14:33:32.854Z,101582.95
2018-07-26T14:36:01.238Z,101571.46
2018-07-26T14:38:29.614Z,101574.61
2018-07-26T14:40:58.190Z,101578.34
2018-07-26T14:43:26.749Z,101568.34
2018-07-26T14:45:55.137Z,101572.01
2018-07-26T14:48:23.501Z,101574.58
2018-07-26T14:50:51.902Z,101572.73
2018-07-26T14:53:20.266Z,101574.20
2018-07-26T14:55:48.658Z,101577.75
2018-07-26T14:58:17.022Z,101581.52
2018-07-26T15:00:45.467Z,101578.46
2018-07-26T15:03:13.833Z,101575.64
2018-07-26T15:05:42.229Z,101579.80
2018-07-26T15:08:10.599Z,101570.39
2018-07-26T15:10:39.012Z,101572.95
2018-07-26T15:13:07.394Z,101572.69
2018-07-26T15:15:35.781Z,101572.13
2018-07-26T15:18:04.182Z,101576.30
2018-07-26T15:20:32.645Z,101574.67
2018-07-26T15:23:01.021Z,101576.60
2018-07-26T15:25:29.414Z,101566.06
2018-07-26T15:27:57.979Z,101571.80
2018-07-26T15:30:26.369Z,101571.71
2018-07-26T15:32:55.101Z,101571.44
2018-07-26T15:35:23.501Z,101574.12
2018-07-26T15:37:52.186Z,101577.77
2018-07-26T15:40:20.825Z,101565.39
2018-07-26T15:42:49.203Z,101566.82
2018-07-26T15:45:17.645Z,101565.02
2018-07-26T15:47:46.138Z,101562.78
2018-07-26T15:50:14.555Z,101562.73
2018-07-26T15:52:42.926Z,101563.03
2018-07-26T15:55:11.301Z,101568.81
2018-07-26T15:57:39.708Z,101571.50
2018-07-26T16:00:10.252Z,101571.77
2018-07-26T16:02:38.654Z,101579.35
2018-07-26T16:05:07.671Z,101570.73
2018-07-26T16:07:36.573Z,101568.89
2018-07-26T16:10:05.677Z,101564.30
2018-07-26T16:12:34.082Z,101565.09
2018-07-26T16:15:02.477Z,101563.10
2018-07-26T16:17:31.249Z,101566.95
2018-07-26T16:19:59.634Z,101562.36
2018-07-26T16:22:28.112Z,101560.09
2018-07-26T16:24:56.475Z,101565.48
2018-07-26T16:27:24.918Z,101557.43
2018-07-26T16:29:53.299Z,101561.75
2018-07-26T16:32:21.701Z,101565.30
2018-07-26T16:34:50.086Z,101559.83
2018-07-26T16:37:18.494Z,101563.36
2018-07-26T16:39:46.879Z,101557.68
2018-07-26T16:42:15.281Z,101555.80
2018-07-26T16:44:43.662Z,101558.72
2018-07-26T16:47:12.070Z,101559.33
2018-07-26T16:49:40.540Z,101563.32
2018-07-26T16:52:09.157Z,101563.32
2018-07-26T16:54:37.526Z,101569.86
2018-07-26T16:57:05.965Z,101569.95
2018-07-26T16:59:34.342Z,101575.68
2018-07-26T17:02:02.734Z,101568.27
2018-07-26T17:04:31.114Z,101571.92
2018-07-26T17:06:59.514Z,101570.71
2018-07-26T17:09:27.894Z,101573.89
2018-07-26T17:11:56.285Z,101572.28
2018-07-26T17:14:24.661Z,101577.14
2018-07-26T17:16:53.063Z,101585.13
2018-07-26T17:19:21.457Z,101576.81
2018-07-26T17:21:50.014Z,101585.13
2018-07-26T17:24:18.414Z,101581.47
2018-07-26T17:26:46.814Z,101585.30
2018-07-26T17:29:15.215Z,101588.04
2018-07-26T17:31:43.817Z,101589.56
2018-07-26T17:34:12.193Z,101597.90
2018-07-26T17:36:40.594Z,101589.38
2018-07-26T17:39:10.260Z,101589.74
2018-07-26T17:41:38.665Z,101576.87
2018-07-26T17:44:07.139Z,101591.45
2018-07-26T17:46:35.792Z,101592.91
2018-07-26T17:49:04.174Z,101595.42
2018-07-26T17:51:32.686Z,101602.58
2018-07-26T17:54:01.083Z,101600.61
2018-07-26T17:56:29.458Z,101603.63
2018-07-26T17:58:57.856Z,101596.83
2018-07-26T18:01:26.239Z,101600.97
2018-07-26T18:03:54.633Z,101600.52
2018-07-26T18:06:23.010Z,101607.34
2018-07-26T18:08:51.409Z,101603.02
2018-07-26T18:11:19.779Z,101606.52
2018-07-26T18:13:48.194Z,101608.30
2018-07-26T18:16:16.558Z,101605.05
2018-07-26T18:18:44.958Z,101595.90
2018-07-26T18:21:13.354Z,101602.34
2018-07-26T18:23:41.753Z,101597.92
2018-07-26T18:26:10.158Z,101604.77
2018-07-26T18:28:38.545Z,101609.61
2018-07-26T18:31:06.925Z,101614.11
2018-07-26T18:33:35.310Z,101618.97
2018-07-26T18:36:03.681Z,101621.21
2018-07-26T18:38:32.066Z,101624.19
2018-07-26T18:41:00.437Z,101630.81
2018-07-26T18:43:28.959Z,101628.17
2018-07-26T18:45:57.341Z,101636.54
2018-07-26T18:48:25.813Z,101642.78
2018-07-26T18:50:54.183Z,101640.23
2018-07-26T18:53:22.569Z,101642.91
2018-07-26T18:55:50.941Z,101639.69
2018-07-26T18:58:19.346Z,101644.17
2018-07-26T19:00:47.729Z,101644.13
2018-07-26T19:03:16.121Z,101651.61
2018-07-26T19:05:44.490Z,101648.85
2018-07-26T19:08:12.892Z,101654.98
2018-07-26T19:10:41.265Z,101653.16
2018-07-26T19:13:09.679Z,101655.34
2018-07-26T19:15:38.058Z,101659.60
2018-07-26T19:18:06.454Z,101663.05
2018-07-26T19:20:34.878Z,101664.14
2018-07-26T19:23:03.277Z,101673.81
2018-07-26T19:25:31.650Z,101675.89
2018-07-26T19:28:00.055Z,101680.70
2018-07-26T19:30:28.693Z,101682.41
2018-07-26T19:32:57.116Z,101692.02
2018-07-26T19:35:25.505Z,101688.83
2018-07-26T19:37:54.018Z,101690.57
2018-07-26T19:40:22.386Z,101693.09
2018-07-26T19:42:50.797Z,101698.31
2018-07-26T19:45:19.165Z,101699.95
2018-07-26T19:47:47.562Z,101698.90
2018-07-26T19:50:15.937Z,101700.50
2018-07-26T19:52:44.350Z,101699.87
2018-07-26T19:55:13.046Z,101700.02
2018-07-26T19:57:41.525Z,101701.54
2018-07-26T20:00:10.651Z,101706.58
2018-07-26T20:02:39.719Z,101700.52
2018-07-26T20:05:08.839Z,101697.18
2018-07-26T20:07:37.220Z,101696.97
2018-07-26T20:10:08.073Z,101706.92
2018-07-26T20:12:36.609Z,101701.00
2018-07-26T20:15:05.799Z,101700.75
2018-07-26T20:17:34.193Z,101700.42
2018-07-26T20:20:02.804Z,101700.17
2018-07-26T20:22:31.220Z,101701.17
2018-07-26T20:24:59.634Z,101697.00
2018-07-26T20:27:28.001Z,101705.97
2018-07-26T20:29:56.390Z,101707.03
2018-07-26T20:32:24.757Z,101703.66
2018-07-26T20:34:53.142Z,101710.92
2018-07-26T20:37:21.518Z,101707.61
2018-07-26T20:39:50.157Z,101706.91
2018-07-26T20:42:18.525Z,101709.76
2018-07-26T20:44:46.933Z,101710.41
2018-07-26T20:47:15.292Z,101708.05
2018-07-26T20:49:43.686Z,101706.98
2018-07-26T20:52:12.070Z,101707.19
2018-07-26T20:54:40.454Z,101703.39
2018-07-26T20:57:08.832Z,101713.75
2018-07-26T20:59:37.253Z,101708.20
2018-07-26T21:02:06.094Z,101707.08
2018-07-26T21:04:34.519Z,101710.77
2018-07-26T21:07:02.882Z,101704.28
2018-07-26T21:09:31.269Z,101707.98
2018-07-26T21:11:59.635Z,101711.64
2018-07-26T21:14:28.026Z,101709.53
2018-07-26T21:16:56.395Z,101708.78
2018-07-26T21:19:24.786Z,101704.51
2018-07-26T21:21:53.170Z,101712.55
2018-07-26T21:24:21.557Z,101711.33
2018-07-26T21:26:49.923Z,101714.52
2018-07-26T21:29:18.310Z,101719.81
2018-07-26T21:31:46.718Z,101716.81
2018-07-26T21:34:15.090Z,101725.67
2018-07-26T21:36:43.457Z,101722.19
2018-07-26T21:39:12.261Z,101726.22
2018-07-26T21:41:41.125Z,101715.29
2018-07-26T21:44:09.517Z,101722.94
2018-07-26T21:46:37.881Z,101722.20
2018-07-26T21:49:06.694Z,101728.97
2018-07-26T21:51:35.098Z,101724.80
2018-07-26T21:54:03.490Z,101722.72
2018-07-26T21:56:31.874Z,101722.48
2018-07-26T21:59:00.245Z,101718.23
2018-07-26T22:01:28.634Z,101723.69
2018-07-26T22:03:57.009Z,101726.85
2018-07-26T22:06:25.402Z,101722.99
2018-07-26T22:08:53.774Z,101727.95
2018-07-26T22:11:22.174Z,101728.90
2018-07-26T22:13:50.543Z,101732.08
2018-07-26T22:16:18.929Z,101726.88
2018-07-26T22:18:47.298Z,101733.09
2018-07-26T22:21:15.706Z,101736.23
2018-07-26T22:23:44.066Z,101733.20
2018-07-26T22:26:12.474Z,101739.47
2018-07-26T22:28:40.880Z,101732.48
2018-07-26T22:31:09.249Z,101735.19
2018-07-26T22:33:37.617Z,101729.53
2018-07-26T22:36:06.064Z,101730.51
2018-07-26T22:38:34.429Z,101730.11
2018-07-26T22:41:02.827Z,101732.84
2018-07-26T22:43:31.201Z,101738.59
2018-07-26T22:45:59.593Z,101740.86
2018-07-26T22:48:27.961Z,101742.72
2018-07-26T22:50:56.580Z,101740.15
2018-07-26T22:53:24.961Z,101741.97
2018-07-26T22:55:53.361Z,101743.81
2018-07-26T22:58:21.732Z,101740.83
2018-07-26T23:00:50.129Z,101742.22
2018-07-26T23:03:18.493Z,101737.88
2018-07-26T23:05:46.893Z,101743.67
2018-07-26T23:08:15.275Z,101738.00
2018-07-26T23:10:43.685Z,101743.75
2018-07-26T23:13:12.058Z,101744.27
2018-07-26T23:15:40.448Z,101736.41
2018-07-26T23:18:08.834Z,101732.11
2018-07-26T23:20:37.254Z,101734.40
2018-07-26T23:23:05.634Z,101740.16
2018-07-26T23:25:34.022Z,101737.16
2018-07-26T23:28:02.393Z,101734.13
2018-07-26T23:30:30.781Z,101737.28
2018-07-26T23:32:59.158Z,101732.53
2018-07-26T23:35:27.545Z,101734.38
2018-07-26T23:37:55.921Z,101727.39
2018-07-26T23:40:24.313Z,101731.86
2018-07-26T23:42:52.689Z,101732.36
2018-07-26T23:45:21.089Z,101731.52
2018-07-26T23:47:49.465Z,101728.92
2018-07-26T23:50:17.853Z,101729.84
2018-07-26T23:52:46.221Z,101724.61
2018-07-26T23:55:14.585Z,101723.34
2018-07-26T23:57:42.985Z,101730.00
